createdAt,value
2019-05-30T00:00:24.769Z,99176.41
2019-05-30T00:01:33.823Z,99179.44
2019-05-30T00:02:43.012Z,99183.60
2019-05-30T00:03:50.986Z,99179.94
2019-05-30T00:05:00.300Z,99186.77
2019-05-30T00:06:08.673Z,99180.58
2019-05-30T00:07:17.443Z,99177.67
2019-05-30T00:08:25.741Z,99179.01
2019-05-30T00:09:34.641Z,99182.41
2019-05-30T00:10:42.791Z,99184.45
2019-05-30T00:11:51.571Z,99180.13
2019-05-30T00:13:00.712Z,99178.10
2019-05-30T00:14:09.693Z,99177.55
2019-05-30T00:15:17.975Z,99182.41
2019-05-30T00:16:27.197Z,99180.23
2019-05-30T00:17:35.035Z,99182.67
2019-05-30T00:18:44.340Z,99179.65
2019-05-30T00:19:52.484Z,99182.62
2019-05-30T00:21:01.244Z,99181.28
2019-05-30T00:22:09.489Z,99187.98
2019-05-30T00:23:18.067Z,99184.66
2019-05-30T00:24:26.601Z,99181.83
2019-05-30T00:25:35.796Z,99188.03
2019-05-30T00:26:43.827Z,99182.33
2019-05-30T00:27:52.631Z,99183.17
2019-05-30T00:29:00.574Z,99181.19
2019-05-30T00:30:23.888Z,99183.38
2019-05-30T00:31:19.498Z,99182.03
2019-05-30T00:32:28.723Z,99182.03
2019-05-30T00:33:36.702Z,99182.67
2019-05-30T00:34:45.566Z,99176.28
2019-05-30T00:35:53.459Z,99181.78
2019-05-30T00:37:02.375Z,99176.89
2019-05-30T00:38:10.240Z,99180.91
2019-05-30T00:39:18.990Z,99181.55
2019-05-30T00:40:28.163Z,99190.42
2019-05-30T00:41:37.783Z,99184.80
2019-05-30T00:42:45.668Z,99187.19
2019-05-30T00:43:55.813Z,99184.02
2019-05-30T00:45:18.616Z,99191.34
2019-05-30T00:46:15.253Z,99185.80
2019-05-30T00:47:23.130Z,99186.90
2019-05-30T00:48:32.259Z,99182.88
2019-05-30T00:49:40.278Z,99194.28
2019-05-30T00:50:49.008Z,99180.16
2019-05-30T00:51:58.344Z,99183.59
2019-05-30T00:53:07.578Z,99185.56
2019-05-30T00:54:15.610Z,99188.09
2019-05-30T00:55:24.576Z,99186.06
2019-05-30T00:56:32.760Z,99186.76
2019-05-30T00:57:41.840Z,99180.56
2019-05-30T00:58:50.067Z,99184.58
2019-05-30T00:59:58.990Z,99183.88
2019-05-30T01:01:07.222Z,99180.36
2019-05-30T01:02:16.308Z,99178.53
2019-05-30T01:03:24.657Z,99182.89
2019-05-30T01:04:33.874Z,99188.01
2019-05-30T01:05:41.904Z,99181.61
2019-05-30T01:06:51.387Z,99181.61
2019-05-30T01:07:59.257Z,99182.25
2019-05-30T01:09:09.270Z,99181.27
2019-05-30T01:10:19.014Z,99176.06
2019-05-30T01:11:27.925Z,99183.16
2019-05-30T01:12:36.218Z,99183.27
2019-05-30T01:13:45.341Z,99173.55
2019-05-30T01:14:53.510Z,99182.77
2019-05-30T01:16:03.222Z,99184.75
2019-05-30T01:17:11.471Z,99184.41
2019-05-30T01:18:20.291Z,99180.01
2019-05-30T01:19:28.489Z,99185.30
2019-05-30T01:20:37.169Z,99179.11
2019-05-30T01:21:45.623Z,99184.66
2019-05-30T01:22:54.335Z,99181.00
2019-05-30T01:24:03.529Z,99175.80
2019-05-30T01:25:13.088Z,99178.32
2019-05-30T01:26:21.267Z,99173.11
2019-05-30T01:27:30.194Z,99175.09
2019-05-30T01:28:38.328Z,99182.27
2019-05-30T01:29:48.835Z,99178.27
2019-05-30T01:31:03.076Z,99174.25
2019-05-30T01:32:24.700Z,99172.19
2019-05-30T01:33:33.621Z,99182.27
2019-05-30T01:34:42.525Z,99174.66
2019-05-30T01:35:50.624Z,99178.31
2019-05-30T01:36:59.856Z,99182.68
2019-05-30T01:38:08.163Z,99178.87
2019-05-30T01:39:16.955Z,99172.82
2019-05-30T01:40:24.903Z,99173.67
2019-05-30T01:41:34.490Z,99172.33
2019-05-30T01:42:42.850Z,99178.87
2019-05-30T01:43:51.928Z,99179.86
2019-05-30T01:45:00.268Z,99178.67
2019-05-30T01:46:09.236Z,99177.83
2019-05-30T01:47:17.246Z,99182.12
2019-05-30T01:48:26.701Z,99181.14
2019-05-30T01:49:34.778Z,99176.63
2019-05-30T01:50:43.660Z,99184.16
2019-05-30T01:51:51.868Z,99177.97
2019-05-30T01:53:00.927Z,99179.07
2019-05-30T01:54:08.926Z,99171.54
2019-05-30T01:55:18.533Z,99176.89
2019-05-30T01:56:26.705Z,99174.21
2019-05-30T01:57:35.885Z,99184.07
2019-05-30T01:58:44.017Z,99178.72
2019-05-30T01:59:52.949Z,99180.70
2019-05-30T02:01:16.858Z,99178.77
2019-05-30T02:02:11.391Z,99178.56
2019-05-30T02:03:19.644Z,99177.58
2019-05-30T02:04:28.710Z,99181.38
2019-05-30T02:05:37.657Z,99178.36
2019-05-30T02:06:46.525Z,99183.42
2019-05-30T02:07:54.630Z,99191.30
2019-05-30T02:09:03.855Z,99179.16
2019-05-30T02:10:12.777Z,99182.32
2019-05-30T02:11:21.605Z,99188.38
2019-05-30T02:12:29.455Z,99190.69
2019-05-30T02:13:38.819Z,99188.62
2019-05-30T02:14:46.885Z,99184.61
2019-05-30T02:15:55.512Z,99188.02
2019-05-30T02:17:03.701Z,99186.74
2019-05-30T02:18:12.660Z,99187.88
2019-05-30T02:19:20.709Z,99190.34
2019-05-30T02:20:29.565Z,99192.43
2019-05-30T02:21:37.950Z,99178.76
2019-05-30T02:22:47.224Z,99192.58
2019-05-30T02:23:55.315Z,99192.22
2019-05-30T02:25:04.284Z,99191.14
2019-05-30T02:26:12.280Z,99195.16
2019-05-30T02:27:20.966Z,99192.83
2019-05-30T02:28:29.168Z,99194.16
2019-05-30T02:29:38.007Z,99195.16
2019-05-30T02:30:46.255Z,99198.11
2019-05-30T02:31:55.116Z,99193.41
2019-05-30T02:33:05.119Z,99202.38
2019-05-30T02:34:13.954Z,99203.16
2019-05-30T02:35:22.254Z,99202.80
2019-05-30T02:36:31.328Z,99201.96
2019-05-30T02:37:39.556Z,99209.48
2019-05-30T02:38:48.309Z,99204.78
2019-05-30T02:40:00.178Z,99205.63
2019-05-30T02:41:08.129Z,99209.63
2019-05-30T02:42:17.053Z,99208.19
2019-05-30T02:43:25.982Z,99204.96
2019-05-30T02:44:34.014Z,99199.52
2019-05-30T02:45:45.989Z,99201.84
2019-05-30T02:46:55.738Z,99203.66
2019-05-30T02:48:05.452Z,99203.81
2019-05-30T02:49:14.199Z,99201.34
2019-05-30T02:50:23.801Z,99210.16
2019-05-30T02:51:31.824Z,99206.02
2019-05-30T02:52:40.949Z,99205.17
2019-05-30T02:53:49.138Z,99203.13
2019-05-30T02:54:58.051Z,99210.06
2019-05-30T02:56:07.777Z,99212.88
2019-05-30T02:57:16.396Z,99217.45
2019-05-30T02:58:24.310Z,99210.31
2019-05-30T02:59:33.534Z,99215.41
2019-05-30T03:00:42.424Z,99206.55
2019-05-30T03:02:01.192Z,99209.86
2019-05-30T03:03:01.863Z,99212.78
2019-05-30T03:04:12.934Z,99214.98
2019-05-30T03:05:21.010Z,99212.78
2019-05-30T03:06:29.935Z,99216.93
2019-05-30T03:07:38.551Z,99210.98
2019-05-30T03:08:47.757Z,99220.09
2019-05-30T03:09:56.394Z,99215.73
2019-05-30T03:11:09.383Z,99220.38
2019-05-30T03:12:15.393Z,99220.98
2019-05-30T03:13:24.593Z,99224.03
2019-05-30T03:14:33.018Z,99217.21
2019-05-30T03:15:42.558Z,99219.11
2019-05-30T03:16:50.552Z,99225.09
2019-05-30T03:17:59.418Z,99222.45
2019-05-30T03:19:08.506Z,99224.21
2019-05-30T03:20:23.249Z,99218.48
2019-05-30T03:21:29.551Z,99221.05
2019-05-30T03:22:38.718Z,99217.39
2019-05-30T03:23:47.092Z,99218.45
2019-05-30T03:24:56.127Z,99216.41
2019-05-30T03:26:04.839Z,99221.39
2019-05-30T03:27:14.561Z,99223.13
2019-05-30T03:28:22.796Z,99235.28
2019-05-30T03:29:31.570Z,99226.28
2019-05-30T03:30:40.155Z,99223.23
2019-05-30T03:31:50.680Z,99223.58
2019-05-30T03:33:07.131Z,99222.73
2019-05-30T03:34:18.035Z,99218.86
2019-05-30T03:35:28.249Z,99216.69
2019-05-30T03:36:31.809Z,99211.38
2019-05-30T03:37:40.303Z,99216.47
2019-05-30T03:38:49.497Z,99224.63
2019-05-30T03:39:57.555Z,99224.91
2019-05-30T03:41:09.114Z,99228.84
2019-05-30T03:42:16.980Z,99228.98
2019-05-30T03:43:26.051Z,99230.31
2019-05-30T03:44:34.343Z,99223.28
2019-05-30T03:45:45.567Z,99230.80
2019-05-30T03:46:58.085Z,99230.17
2019-05-30T03:48:13.629Z,99231.65
2019-05-30T03:49:25.644Z,99235.30
2019-05-30T03:50:37.205Z,99234.45
2019-05-30T03:51:49.500Z,99229.61
2019-05-30T03:52:58.853Z,99235.58
2019-05-30T03:54:09.881Z,99241.14
2019-05-30T03:55:21.985Z,99235.30
2019-05-30T03:56:40.236Z,99238.68
2019-05-30T03:58:12.776Z,99236.15
2019-05-30T03:59:25.702Z,99241.03
2019-05-30T04:00:50.998Z,99241.66
2019-05-30T04:02:20.504Z,99250.43
2019-05-30T04:03:57.621Z,99250.53
2019-05-30T04:05:24.797Z,99250.92
2019-05-30T04:06:41.691Z,99253.95
2019-05-30T04:07:54.172Z,99251.77
2019-05-30T04:09:21.270Z,99260.27
2019-05-30T04:10:27.519Z,99255.41
2019-05-30T04:11:40.808Z,99252.39
2019-05-30T04:13:05.438Z,99256.61
2019-05-30T04:14:19.368Z,99257.45
2019-05-30T04:15:35.819Z,99260.02
2019-05-30T04:16:45.635Z,99264.03
2019-05-30T04:17:53.735Z,99267.55
2019-05-30T04:19:02.647Z,99258.55
2019-05-30T04:20:11.583Z,99262.34
2019-05-30T04:21:21.763Z,99268.27
2019-05-30T04:22:31.446Z,99270.35
2019-05-30T04:23:40.070Z,99273.73
2019-05-30T04:24:48.584Z,99265.48
2019-05-30T04:26:00.323Z,99269.08
2019-05-30T04:27:08.101Z,99263.87
2019-05-30T04:28:18.840Z,99274.20
2019-05-30T04:29:27.334Z,99272.02
2019-05-30T04:30:36.646Z,99268.61
2019-05-30T04:31:44.968Z,99271.36
2019-05-30T04:32:54.121Z,99268.61
2019-05-30T04:34:02.354Z,99264.00
2019-05-30T04:35:12.349Z,99273.13
2019-05-30T04:36:20.370Z,99266.81
2019-05-30T04:37:29.175Z,99275.20
2019-05-30T04:38:37.065Z,99270.70
2019-05-30T04:39:45.819Z,99277.48
2019-05-30T04:40:53.761Z,99286.23
2019-05-30T04:42:02.617Z,99277.98
2019-05-30T04:43:11.082Z,99276.78
2019-05-30T04:44:20.630Z,99277.73
2019-05-30T04:45:28.669Z,99277.97
2019-05-30T04:46:37.373Z,99281.73
2019-05-30T04:47:45.732Z,99277.25
2019-05-30T04:48:55.080Z,99285.64
2019-05-30T04:50:03.604Z,99281.15
2019-05-30T04:51:14.436Z,99280.03
2019-05-30T04:52:24.759Z,99277.36
2019-05-30T04:53:32.771Z,99276.24
2019-05-30T04:54:41.004Z,99273.70
2019-05-30T04:55:50.188Z,99271.03
2019-05-30T04:56:58.622Z,99279.41
2019-05-30T04:58:07.730Z,99280.90
2019-05-30T04:59:17.563Z,99280.04
2019-05-30T05:00:26.767Z,99287.10
2019-05-30T05:01:34.948Z,99282.00
2019-05-30T05:02:43.689Z,99285.37
2019-05-30T05:03:52.235Z,99285.77
2019-05-30T05:05:01.107Z,99291.33
2019-05-30T05:06:09.097Z,99288.91
2019-05-30T05:07:18.011Z,99291.58
2019-05-30T05:08:26.098Z,99293.27
2019-05-30T05:09:35.045Z,99297.16
2019-05-30T05:10:43.588Z,99293.16
2019-05-30T05:11:53.707Z,99291.72
2019-05-30T05:13:01.947Z,99296.20
2019-05-30T05:14:10.216Z,99302.92
2019-05-30T05:15:18.784Z,99307.16
2019-05-30T05:16:35.350Z,99310.55
2019-05-30T05:17:37.117Z,99312.28
2019-05-30T05:18:46.511Z,99312.03
2019-05-30T05:19:54.483Z,99308.77
2019-05-30T05:21:03.277Z,99311.66
2019-05-30T05:22:11.402Z,99309.70
2019-05-30T05:23:19.824Z,99313.61
2019-05-30T05:24:27.986Z,99311.66
2019-05-30T05:25:36.316Z,99308.14
2019-05-30T05:26:44.635Z,99307.79
2019-05-30T05:27:53.869Z,99312.64
2019-05-30T05:29:02.053Z,99314.06
2019-05-30T05:30:13.924Z,99312.36
2019-05-30T05:31:22.462Z,99313.80
2019-05-30T05:32:31.411Z,99323.37
2019-05-30T05:33:55.473Z,99324.47
2019-05-30T05:34:52.152Z,99320.95
2019-05-30T05:36:00.276Z,99322.88
2019-05-30T05:37:09.361Z,99323.86
2019-05-30T05:38:18.130Z,99325.70
2019-05-30T05:39:27.052Z,99328.38
2019-05-30T05:40:35.404Z,99329.92
2019-05-30T05:41:44.003Z,99323.74
2019-05-30T05:42:52.342Z,99329.44
2019-05-30T05:44:03.633Z,99329.80
2019-05-30T05:45:13.025Z,99329.55
2019-05-30T05:46:22.575Z,99335.12
2019-05-30T05:47:30.814Z,99337.52
2019-05-30T05:48:39.960Z,99335.94
2019-05-30T05:49:48.674Z,99333.27
2019-05-30T05:50:57.910Z,99340.80
2019-05-30T05:52:06.296Z,99341.42
2019-05-30T05:53:14.926Z,99337.41
2019-05-30T05:54:23.033Z,99334.98
2019-05-30T05:55:32.061Z,99339.23
2019-05-30T05:56:39.917Z,99340.19
2019-05-30T05:57:49.347Z,99348.09
2019-05-30T05:58:57.270Z,99344.45
2019-05-30T06:00:09.457Z,99345.64
2019-05-30T06:01:19.254Z,99344.17
2019-05-30T06:02:28.501Z,99348.87
2019-05-30T06:03:36.775Z,99339.66
2019-05-30T06:04:45.703Z,99351.33
2019-05-30T06:05:54.083Z,99341.02
2019-05-30T06:07:03.040Z,99346.22
2019-05-30T06:08:10.952Z,99340.52
2019-05-30T06:09:20.579Z,99341.99
2019-05-30T06:10:28.954Z,99344.80
2019-05-30T06:11:37.668Z,99353.87
2019-05-30T06:12:45.724Z,99353.50
2019-05-30T06:13:54.769Z,99359.81
2019-05-30T06:15:03.225Z,99355.82
2019-05-30T06:16:12.084Z,99357.98
2019-05-30T06:17:21.142Z,99362.32
2019-05-30T06:18:30.040Z,99365.34
2019-05-30T06:19:46.606Z,99362.78
2019-05-30T06:20:48.913Z,99360.92
2019-05-30T06:21:57.458Z,99359.84
2019-05-30T06:23:06.325Z,99359.21
2019-05-30T06:24:14.328Z,99361.26
2019-05-30T06:25:25.228Z,99355.42
2019-05-30T06:26:33.282Z,99358.23
2019-05-30T06:27:42.602Z,99363.95
2019-05-30T06:28:51.322Z,99367.12
2019-05-30T06:30:00.306Z,99364.01
2019-05-30T06:31:08.388Z,99364.88
2019-05-30T06:32:18.564Z,99370.42
2019-05-30T06:33:27.196Z,99375.11
2019-05-30T06:34:43.141Z,99361.26
2019-05-30T06:35:51.477Z,99372.55
2019-05-30T06:37:00.323Z,99364.61
2019-05-30T06:38:08.513Z,99363.24
2019-05-30T06:39:17.603Z,99363.84
2019-05-30T06:40:25.632Z,99364.09
2019-05-30T06:41:34.447Z,99362.13
2019-05-30T06:42:42.492Z,99364.72
2019-05-30T06:43:51.522Z,99365.34
2019-05-30T06:44:59.902Z,99367.53
2019-05-30T06:46:08.425Z,99367.25
2019-05-30T06:47:16.565Z,99369.79
2019-05-30T06:48:26.835Z,99367.12
2019-05-30T06:49:35.013Z,99373.06
2019-05-30T06:50:43.804Z,99372.33
2019-05-30T06:51:52.410Z,99375.41
2019-05-30T06:53:01.740Z,99377.45
2019-05-30T06:54:09.725Z,99372.71
2019-05-30T06:55:18.643Z,99371.09
2019-05-30T06:56:27.470Z,99375.81
2019-05-30T06:57:36.464Z,99380.07
2019-05-30T06:58:48.748Z,99375.70
2019-05-30T06:59:55.019Z,99370.11
2019-05-30T07:01:02.948Z,99370.61
2019-05-30T07:02:11.403Z,99371.91
2019-05-30T07:03:19.314Z,99369.23
2019-05-30T07:04:31.086Z,99368.96
2019-05-30T07:05:38.556Z,99372.76
2019-05-30T07:06:47.937Z,99374.62
2019-05-30T07:07:56.118Z,99374.13
2019-05-30T07:09:06.321Z,99382.91
2019-05-30T07:10:17.262Z,99386.79
2019-05-30T07:11:26.778Z,99388.12
2019-05-30T07:12:34.986Z,99390.09
2019-05-30T07:13:43.951Z,99386.44
2019-05-30T07:14:51.943Z,99389.81
2019-05-30T07:16:00.642Z,99383.48
2019-05-30T07:17:08.775Z,99387.98
2019-05-30T07:18:17.638Z,99387.73
2019-05-30T07:19:25.764Z,99389.64
2019-05-30T07:20:34.770Z,99384.79
2019-05-30T07:21:42.714Z,99386.13
2019-05-30T07:22:51.488Z,99385.84
2019-05-30T07:23:59.430Z,99392.92
2019-05-30T07:25:08.917Z,99393.16
2019-05-30T07:26:16.747Z,99385.53
2019-05-30T07:27:26.196Z,99390.27
2019-05-30T07:28:34.443Z,99385.63
2019-05-30T07:29:43.341Z,99385.98
2019-05-30T07:30:51.393Z,99392.18
2019-05-30T07:32:00.944Z,99385.98
2019-05-30T07:33:09.089Z,99393.80
2019-05-30T07:34:18.199Z,99400.13
2019-05-30T07:35:27.899Z,99394.04
2019-05-30T07:36:36.950Z,99398.30
2019-05-30T07:37:46.633Z,99397.03
2019-05-30T07:38:55.503Z,99391.69
2019-05-30T07:40:04.732Z,99396.95
2019-05-30T07:41:13.735Z,99396.61
2019-05-30T07:42:21.733Z,99394.88
2019-05-30T07:43:31.826Z,99402.91
2019-05-30T07:44:40.179Z,99398.16
2019-05-30T07:45:57.700Z,99398.79
2019-05-30T07:46:59.029Z,99400.16
2019-05-30T07:48:07.449Z,99405.50
2019-05-30T07:49:15.587Z,99403.56
2019-05-30T07:50:24.705Z,99402.47
2019-05-30T07:51:32.790Z,99412.89
2019-05-30T07:52:42.245Z,99408.39
2019-05-30T07:53:50.576Z,99401.70
2019-05-30T07:54:59.392Z,99414.23
2019-05-30T07:56:08.164Z,99414.31
2019-05-30T07:57:17.488Z,99419.25
2019-05-30T07:58:26.941Z,99417.67
2019-05-30T07:59:36.205Z,99424.84
2019-05-30T08:00:44.494Z,99415.48
2019-05-30T08:01:53.296Z,99418.89
2019-05-30T08:03:01.671Z,99416.93
2019-05-30T08:04:10.545Z,99419.01
2019-05-30T08:05:24.202Z,99427.59
2019-05-30T08:06:29.533Z,99419.50
2019-05-30T08:07:38.967Z,99418.52
2019-05-30T08:08:48.330Z,99425.58
2019-05-30T08:09:56.744Z,99421.08
2019-05-30T08:11:09.593Z,99423.05
2019-05-30T08:12:20.014Z,99427.41
2019-05-30T08:13:29.695Z,99427.52
2019-05-30T08:14:42.278Z,99431.53
2019-05-30T08:15:54.103Z,99427.76
2019-05-30T08:17:04.205Z,99435.78
2019-05-30T08:18:16.805Z,99428.74
2019-05-30T08:19:27.764Z,99428.03
2019-05-30T08:20:38.259Z,99428.87
2019-05-30T08:21:47.811Z,99428.33
2019-05-30T08:22:59.041Z,99432.44
2019-05-30T08:24:14.405Z,99434.27
2019-05-30T08:25:27.892Z,99433.53
2019-05-30T08:26:38.487Z,99436.56
2019-05-30T08:27:48.156Z,99432.94
2019-05-30T08:28:55.958Z,99440.02
2019-05-30T08:30:06.118Z,99447.28
2019-05-30T08:31:14.012Z,99443.88
2019-05-30T08:32:22.876Z,99448.68
2019-05-30T08:33:31.466Z,99447.10
2019-05-30T08:34:40.592Z,99450.13
2019-05-30T08:35:50.220Z,99451.11
2019-05-30T08:36:59.201Z,99449.91
2019-05-30T08:38:07.351Z,99455.13
2019-05-30T08:39:16.327Z,99448.80
2019-05-30T08:40:24.600Z,99451.82
2019-05-30T08:41:35.223Z,99450.13
2019-05-30T08:42:43.463Z,99450.40
2019-05-30T08:43:52.377Z,99459.35
2019-05-30T08:45:00.383Z,99457.50
2019-05-30T08:46:09.310Z,99456.30
2019-05-30T08:47:18.630Z,99460.29
2019-05-30T08:48:27.479Z,99461.36
2019-05-30T08:49:36.210Z,99456.97
2019-05-30T08:50:45.084Z,99457.56
2019-05-30T08:51:53.077Z,99458.66
2019-05-30T08:53:02.031Z,99456.12
2019-05-30T08:54:13.469Z,99456.61
2019-05-30T08:55:21.149Z,99463.65
2019-05-30T08:56:30.304Z,99462.55
2019-05-30T08:57:40.764Z,99458.19
2019-05-30T08:58:49.322Z,99461.05
2019-05-30T08:59:58.551Z,99466.73
2019-05-30T09:01:06.796Z,99463.59
2019-05-30T09:02:15.650Z,99463.56
2019-05-30T09:03:23.741Z,99461.73
2019-05-30T09:04:33.186Z,99466.87
2019-05-30T09:05:58.219Z,99465.17
2019-05-30T09:06:52.086Z,99466.87
2019-05-30T09:08:00.694Z,99466.52
2019-05-30T09:09:10.177Z,99469.27
2019-05-30T09:10:19.511Z,99464.91
2019-05-30T09:11:28.524Z,99463.92
2019-05-30T09:12:38.644Z,99472.44
2019-05-30T09:13:47.485Z,99470.36
2019-05-30T09:14:55.520Z,99469.59
2019-05-30T09:16:04.490Z,99466.81
2019-05-30T09:17:12.973Z,99470.06
2019-05-30T09:18:21.916Z,99471.23
2019-05-30T09:19:30.305Z,99468.91
2019-05-30T09:20:39.808Z,99472.88
2019-05-30T09:21:48.246Z,99467.64
2019-05-30T09:22:57.140Z,99471.30
2019-05-30T09:24:06.185Z,99470.70
2019-05-30T09:25:17.428Z,99471.23
2019-05-30T09:26:25.764Z,99471.55
2019-05-30T09:27:34.621Z,99468.88
2019-05-30T09:28:44.112Z,99464.86
2019-05-30T09:29:53.113Z,99466.41
2019-05-30T09:31:01.244Z,99466.05
2019-05-30T09:32:09.977Z,99470.67
2019-05-30T09:33:18.032Z,99473.09
2019-05-30T09:34:27.037Z,99469.58
2019-05-30T09:35:35.337Z,99473.91
2019-05-30T09:36:44.706Z,99481.23
2019-05-30T09:37:52.874Z,99472.47
2019-05-30T09:39:01.765Z,99471.30
2019-05-30T09:40:15.509Z,99469.93
2019-05-30T09:41:24.205Z,99481.73
2019-05-30T09:42:32.728Z,99470.84
2019-05-30T09:43:42.893Z,99475.95
2019-05-30T09:44:52.222Z,99477.61
2019-05-30T09:46:11.512Z,99473.34
2019-05-30T09:47:19.454Z,99476.23
2019-05-30T09:48:28.307Z,99477.47
2019-05-30T09:49:36.439Z,99478.06
2019-05-30T09:50:46.686Z,99476.69
2019-05-30T09:51:54.961Z,99478.62
2019-05-30T09:53:04.148Z,99475.25
2019-05-30T09:54:12.157Z,99480.74
2019-05-30T09:55:22.442Z,99479.05
2019-05-30T09:56:30.655Z,99473.80
2019-05-30T09:57:39.469Z,99477.71
2019-05-30T09:58:47.908Z,99479.12
2019-05-30T09:59:55.983Z,99482.89
2019-05-30T10:01:04.103Z,99478.09
2019-05-30T10:02:13.009Z,99478.80
2019-05-30T10:03:21.023Z,99483.97
2019-05-30T10:04:29.777Z,99481.39
2019-05-30T10:05:38.493Z,99479.87
2019-05-30T10:06:48.447Z,99481.70
2019-05-30T10:07:56.606Z,99480.70
2019-05-30T10:09:06.849Z,99482.99
2019-05-30T10:10:16.911Z,99485.53
2019-05-30T10:11:25.854Z,99479.28
2019-05-30T10:12:34.102Z,99478.14
2019-05-30T10:13:42.515Z,99474.69
2019-05-30T10:14:51.073Z,99479.04
2019-05-30T10:15:59.524Z,99486.38
2019-05-30T10:17:07.925Z,99481.72
2019-05-30T10:18:16.901Z,99482.42
2019-05-30T10:19:25.044Z,99484.14
2019-05-30T10:20:33.938Z,99480.05
2019-05-30T10:21:42.575Z,99475.53
2019-05-30T10:22:53.657Z,99484.66
2019-05-30T10:24:02.069Z,99476.02
2019-05-30T10:25:11.901Z,99482.81
2019-05-30T10:26:20.038Z,99478.21
2019-05-30T10:27:28.989Z,99485.14
2019-05-30T10:28:37.012Z,99480.98
2019-05-30T10:29:47.293Z,99479.15
2019-05-30T10:30:59.274Z,99488.51
2019-05-30T10:32:06.592Z,99483.16
2019-05-30T10:33:15.696Z,99479.48
2019-05-30T10:34:25.063Z,99485.83
2019-05-30T10:35:33.665Z,99489.11
2019-05-30T10:36:44.698Z,99484.34
2019-05-30T10:37:53.133Z,99483.36
2019-05-30T10:39:01.637Z,99492.53
2019-05-30T10:40:10.479Z,99491.09
2019-05-30T10:41:19.322Z,99486.72
2019-05-30T10:42:27.300Z,99489.20
2019-05-30T10:43:35.947Z,99487.50
2019-05-30T10:44:44.122Z,99487.02
2019-05-30T10:45:53.543Z,99488.25
2019-05-30T10:47:01.653Z,99481.51
2019-05-30T10:48:10.498Z,99485.73
2019-05-30T10:49:33.705Z,99480.03
2019-05-30T10:50:29.424Z,99476.71
2019-05-30T10:51:37.325Z,99483.20
2019-05-30T10:52:47.184Z,99485.17
2019-05-30T10:53:55.731Z,99480.17
2019-05-30T10:55:06.205Z,99476.69
2019-05-30T10:56:14.319Z,99479.87
2019-05-30T10:57:23.374Z,99481.55
2019-05-30T10:58:31.459Z,99483.03
2019-05-30T10:59:40.355Z,99479.52
2019-05-30T11:00:55.798Z,99473.52
2019-05-30T11:02:05.480Z,99481.91
2019-05-30T11:03:13.776Z,99477.34
2019-05-30T11:04:22.728Z,99478.23
2019-05-30T11:05:30.821Z,99478.81
2019-05-30T11:07:11.117Z,99477.94
2019-05-30T11:08:16.542Z,99479.02
2019-05-30T11:09:29.954Z,99478.17
2019-05-30T11:10:43.018Z,99478.52
2019-05-30T11:11:52.851Z,99474.02
2019-05-30T11:13:05.892Z,99471.19
2019-05-30T11:14:11.245Z,99475.98
2019-05-30T11:15:19.927Z,99483.48
2019-05-30T11:16:28.936Z,99473.97
2019-05-30T11:17:37.209Z,99481.66
2019-05-30T11:18:47.531Z,99478.98
2019-05-30T11:19:56.178Z,99477.28
2019-05-30T11:21:05.515Z,99468.33
2019-05-30T11:22:13.711Z,99467.97
2019-05-30T11:23:22.540Z,99472.84
2019-05-30T11:24:30.753Z,99477.28
2019-05-30T11:25:40.043Z,99483.34
2019-05-30T11:26:48.712Z,99466.08
2019-05-30T11:27:58.925Z,99467.63
2019-05-30T11:29:07.655Z,99475.21
2019-05-30T11:30:18.007Z,99468.61
2019-05-30T11:31:26.064Z,99467.27
2019-05-30T11:32:34.839Z,99479.58
2019-05-30T11:33:43.382Z,99469.71
2019-05-30T11:34:53.035Z,99468.86
2019-05-30T11:36:01.113Z,99469.25
2019-05-30T11:37:18.655Z,99474.72
2019-05-30T11:38:19.881Z,99472.63
2019-05-30T11:39:28.882Z,99476.20
2019-05-30T11:40:37.184Z,99477.28
2019-05-30T11:41:46.346Z,99482.00
2019-05-30T11:42:55.477Z,99469.81
2019-05-30T11:44:04.383Z,99478.52
2019-05-30T11:45:13.420Z,99473.17
2019-05-30T11:46:23.159Z,99478.73
2019-05-30T11:47:31.602Z,99473.38
2019-05-30T11:48:40.547Z,99466.98
2019-05-30T11:49:49.563Z,99474.61
2019-05-30T11:50:58.377Z,99470.45
2019-05-30T11:52:06.324Z,99479.23
2019-05-30T11:53:15.467Z,99475.00
2019-05-30T11:54:23.399Z,99478.88
2019-05-30T11:55:32.830Z,99476.55
2019-05-30T11:56:40.964Z,99480.15
2019-05-30T11:57:50.236Z,99478.22
2019-05-30T11:58:58.456Z,99480.19
2019-05-30T12:00:10.883Z,99473.26
2019-05-30T12:01:19.216Z,99476.92
2019-05-30T12:02:28.078Z,99477.02
2019-05-30T12:03:36.404Z,99479.25
2019-05-30T12:04:45.015Z,99480.69
2019-05-30T12:05:55.051Z,99487.03
2019-05-30T12:07:04.198Z,99480.09
2019-05-30T12:08:12.299Z,99479.60
2019-05-30T12:09:21.417Z,99483.76
2019-05-30T12:10:31.015Z,99481.97
2019-05-30T12:11:39.634Z,99484.16
2019-05-30T12:12:47.892Z,99483.00
2019-05-30T12:13:57.423Z,99480.95
2019-05-30T12:15:08.674Z,99480.31
2019-05-30T12:16:17.049Z,99486.48
2019-05-30T12:17:25.233Z,99486.48
2019-05-30T12:18:34.199Z,99483.34
2019-05-30T12:19:42.635Z,99486.03
2019-05-30T12:20:52.070Z,99486.17
2019-05-30T12:22:00.225Z,99486.80
2019-05-30T12:23:08.737Z,99488.28
2019-05-30T12:24:16.811Z,99491.94
2019-05-30T12:25:25.796Z,99490.49
2019-05-30T12:26:34.346Z,99487.60
2019-05-30T12:27:43.363Z,99486.16
2019-05-30T12:28:52.063Z,99481.47
2019-05-30T12:30:02.552Z,99480.48
2019-05-30T12:31:11.065Z,99481.98
2019-05-30T12:32:20.262Z,99479.59
2019-05-30T12:33:28.714Z,99476.77
2019-05-30T12:34:37.662Z,99482.48
2019-05-30T12:35:46.026Z,99483.11
2019-05-30T12:36:56.419Z,99485.21
2019-05-30T12:38:06.595Z,99481.20
2019-05-30T12:39:15.296Z,99482.05
2019-05-30T12:40:24.715Z,99484.09
2019-05-30T12:41:33.634Z,99474.19
2019-05-30T12:42:42.199Z,99484.14
2019-05-30T12:43:51.383Z,99483.70
2019-05-30T12:45:03.487Z,99485.40
2019-05-30T12:46:10.577Z,99482.37
2019-05-30T12:47:18.609Z,99480.19
2019-05-30T12:48:27.730Z,99478.95
2019-05-30T12:49:35.993Z,99478.11
2019-05-30T12:50:44.858Z,99476.33
2019-05-30T12:51:54.102Z,99481.94
2019-05-30T12:53:03.015Z,99480.66
2019-05-30T12:54:11.080Z,99481.86
2019-05-30T12:55:20.542Z,99480.30
2019-05-30T12:56:28.696Z,99479.31
2019-05-30T12:57:37.589Z,99477.38
2019-05-30T12:58:46.344Z,99481.03
2019-05-30T12:59:54.985Z,99480.67
2019-05-30T13:01:03.107Z,99474.97
2019-05-30T13:02:11.931Z,99478.27
2019-05-30T13:03:20.069Z,99480.20
2019-05-30T13:04:28.968Z,99476.45
2019-05-30T13:05:37.167Z,99477.39
2019-05-30T13:06:46.558Z,99475.48
2019-05-30T13:08:11.703Z,99475.36
2019-05-30T13:09:07.348Z,99472.83
2019-05-30T13:10:16.082Z,99479.78
2019-05-30T13:11:25.319Z,99483.08
2019-05-30T13:12:33.569Z,99482.72
2019-05-30T13:13:42.578Z,99476.98
2019-05-30T13:14:50.928Z,99481.98
2019-05-30T13:16:01.836Z,99484.20
2019-05-30T13:17:09.978Z,99477.39
2019-05-30T13:18:18.890Z,99479.80
2019-05-30T13:19:27.082Z,99478.60
2019-05-30T13:20:36.127Z,99481.67
2019-05-30T13:21:44.381Z,99474.14
2019-05-30T13:22:53.748Z,99476.81
2019-05-30T13:24:02.127Z,99476.56
2019-05-30T13:25:17.318Z,99472.20
2019-05-30T13:26:25.372Z,99477.17
2019-05-30T13:27:34.261Z,99476.08
2019-05-30T13:28:42.252Z,99470.38
2019-05-30T13:29:51.176Z,99471.12
2019-05-30T13:31:00.233Z,99473.54
2019-05-30T13:32:09.307Z,99472.59
2019-05-30T13:33:17.295Z,99469.30
2019-05-30T13:34:26.363Z,99472.59